sensor_id;sensor_type;location;lat;lon;timestamp;P1;durP1;ratioP1;P2;durP2;ratioP2
24335;SDS011;33098;52.400;16.880;2023-07-09T07:09:01;4.30;;;2.40;;
24335;SDS011;33098;52.400;16.880;2023-07-09T07:11:27;4.50;;;2.50;;
24335;SDS011;33098;52.400;16.880;2023-07-09T07:13:59;4.40;;;2.40;;
24335;SDS011;33098;52.400;16.880;2023-07-09T07:16:29;2.90;;;2.30;;
24335;SDS011;33098;52.400;16.880;2023-07-09T07:18:56;3.60;;;2.50;;
24335;SDS011;33098;52.400;16.880;2023-07-09T07:21:23;3.70;;;2.60;;
24335;SDS011;33098;52.400;16.880;2023-07-09T07:23:50;3.70;;;2.30;;
24335;SDS011;33098;52.400;16.880;2023-07-09T07:26:16;4.60;;;2.60;;
24335;SDS011;33098;52.400;16.880;2023-07-09T07:28:58;3.30;;;2.10;;
24335;SDS011;33098;52.400;16.880;2023-07-09T07:31:28;3.70;;;2.40;;
24335;SDS011;33098;52.400;16.880;2023-07-09T07:36:49;5.20;;;2.50;;
24335;SDS011;33098;52.400;16.880;2023-07-09T07:39:16;4.40;;;2.40;;
24335;SDS011;33098;52.400;16.880;2023-07-09T07:41:43;2.60;;;2.30;;
24335;SDS011;33098;52.400;16.880;2023-07-09T07:44:09;4.10;;;2.30;;
24335;SDS011;33098;52.400;16.880;2023-07-09T07:46:41;4.80;;;2.50;;
24335;SDS011;33098;52.400;16.880;2023-07-09T07:49:08;2.60;;;2.40;;
24335;SDS011;33098;52.400;16.880;2023-07-09T07:51:35;2.50;;;2.20;;
24335;SDS011;33098;52.400;16.880;2023-07-09T07:54:01;4.30;;;2.50;;
24335;SDS011;33098;52.400;16.880;2023-07-09T07:56:28;4.40;;;2.60;;
24335;SDS011;33098;52.400;16.880;2023-07-09T07:58:55;2.70;;;2.10;;
24335;SDS011;33098;52.400;16.880;2023-07-09T08:01:21;4.60;;;2.40;;
24335;SDS011;33098;52.400;16.880;2023-07-09T08:03:51;4.10;;;2.50;;
24335;SDS011;33098;52.400;16.880;2023-07-09T08:06:19;2.70;;;2.30;;
24335;SDS011;33098;52.400;16.880;2023-07-09T08:08:46;2.70;;;2.20;;
24335;SDS011;33098;52.400;16.880;2023-07-09T08:11:14;3.50;;;2.40;;
24335;SDS011;33098;52.400;16.880;2023-07-09T08:13:41;6.10;;;2.50;;
24335;SDS011;33098;52.400;16.880;2023-07-09T08:16:10;3.20;;;2.60;;
24335;SDS011;33098;52.400;16.880;2023-07-09T08:18:40;4.10;;;2.20;;
24335;SDS011;33098;52.400;16.880;2023-07-09T08:21:09;2.50;;;2.30;;
24335;SDS011;33098;52.400;16.880;2023-07-09T08:23:39;2.90;;;2.50;;
24335;SDS011;33098;52.400;16.880;2023-07-09T08:26:16;3.30;;;2.40;;
24335;SDS011;33098;52.400;16.880;2023-07-09T08:28:44;3.00;;;2.40;;
24335;SDS011;33098;52.400;16.880;2023-07-09T08:31:14;3.60;;;2.60;;
24335;SDS011;33098;52.400;16.880;2023-07-09T08:33:41;3.80;;;2.50;;
24335;SDS011;33098;52.400;16.880;2023-07-09T08:36:08;3.70;;;2.20;;
24335;SDS011;33098;52.400;16.880;2023-07-09T08:38:38;5.30;;;2.70;;
24335;SDS011;33098;52.400;16.880;2023-07-09T08:43:34;5.90;;;2.70;;
24335;SDS011;33098;52.400;16.880;2023-07-09T08:46:16;3.90;;;2.50;;
24335;SDS011;33098;52.400;16.880;2023-07-09T08:48:53;4.20;;;2.50;;
24335;SDS011;33098;52.400;16.880;2023-07-09T08:51:27;4.20;;;2.50;;
24335;SDS011;33098;52.400;16.880;2023-07-09T08:54:09;4.40;;;2.30;;
24335;SDS011;33098;52.400;16.880;2023-07-09T08:57:31;2.70;;;2.30;;
24335;SDS011;33098;52.400;16.880;2023-07-09T09:00:10;5.30;;;3.30;;
24335;SDS011;33098;52.400;16.880;2023-07-09T09:02:46;2.50;;;2.20;;
24335;SDS011;33098;52.400;16.880;2023-07-09T09:05:24;3.90;;;2.70;;
24335;SDS011;33098;52.400;16.880;2023-07-09T09:07:56;3.50;;;3.00;;
24335;SDS011;33098;52.400;16.880;2023-07-09T09:10:48;3.50;;;2.80;;
24335;SDS011;33098;52.400;16.880;2023-07-09T09:13:34;2.90;;;2.10;;
24335;SDS011;33098;52.400;16.880;2023-07-09T09:16:10;3.30;;;2.40;;
24335;SDS011;33098;52.400;16.880;2023-07-09T09:18:47;5.40;;;4.20;;
24335;SDS011;33098;52.400;16.880;2023-07-09T09:27:09;5.10;;;4.20;;
24335;SDS011;33098;52.400;16.880;2023-07-09T09:29:36;2.70;;;2.30;;
24335;SDS011;33098;52.400;16.880;2023-07-09T09:32:13;4.70;;;2.40;;
24335;SDS011;33098;52.400;16.880;2023-07-09T09:34:49;8.90;;;2.90;;
24335;SDS011;33098;52.400;16.880;2023-07-09T09:37:30;3.90;;;2.40;;
24335;SDS011;33098;52.400;16.880;2023-07-09T09:39:58;6.20;;;4.20;;
24335;SDS011;33098;52.400;16.880;2023-07-09T09:42:30;5.60;;;5.10;;
24335;SDS011;33098;52.400;16.880;2023-07-09T09:45:02;5.90;;;5.10;;
24335;SDS011;33098;52.400;16.880;2023-07-09T09:47:30;2.70;;;2.50;;
24335;SDS011;33098;52.400;16.880;2023-07-09T09:49:58;5.40;;;3.90;;
24335;SDS011;33098;52.400;16.880;2023-07-09T09:52:26;4.50;;;3.80;;
24335;SDS011;33098;52.400;16.880;2023-07-09T09:57:53;3.30;;;2.90;;
24335;SDS011;33098;52.400;16.880;2023-07-09T10:00:25;4.70;;;4.20;;
24335;SDS011;33098;52.400;16.880;2023-07-09T10:03:05;4.80;;;4.30;;
24335;SDS011;33098;52.400;16.880;2023-07-09T10:05:42;5.40;;;2.70;;
24335;SDS011;33098;52.400;16.880;2023-07-09T10:11:14;3.20;;;2.30;;
24335;SDS011;33098;52.400;16.880;2023-07-09T10:13:50;3.40;;;3.10;;
24335;SDS011;33098;52.400;16.880;2023-07-09T10:16:27;4.10;;;3.50;;
24335;SDS011;33098;52.400;16.880;2023-07-09T10:19:14;4.10;;;3.40;;
24335;SDS011;33098;52.400;16.880;2023-07-09T10:25:15;4.50;;;3.80;;
24335;SDS011;33098;52.400;16.880;2023-07-09T10:39:42;3.40;;;2.70;;
24335;SDS011;33098;52.400;16.880;2023-07-09T10:42:57;2.40;;;2.20;;
24335;SDS011;33098;52.400;16.880;2023-07-09T10:48:30;4.00;;;3.60;;
24335;SDS011;33098;52.400;16.880;2023-07-09T10:51:30;3.60;;;2.70;;
24335;SDS011;33098;52.400;16.880;2023-07-09T11:00:18;3.90;;;3.40;;
24335;SDS011;33098;52.400;16.880;2023-07-09T11:02:50;3.00;;;2.70;;
24335;SDS011;33098;52.400;16.880;2023-07-09T11:05:24;3.80;;;3.40;;
24335;SDS011;33098;52.400;16.880;2023-07-09T11:08:00;3.80;;;3.40;;
24335;SDS011;33098;52.400;16.880;2023-07-09T11:10:55;2.70;;;2.20;;
24335;SDS011;33098;52.400;16.880;2023-07-09T11:13:42;3.10;;;2.70;;
24335;SDS011;33098;52.400;16.880;2023-07-09T11:16:20;3.20;;;2.90;;
24335;SDS011;33098;52.400;16.880;2023-07-09T11:18:58;2.70;;;2.20;;
24335;SDS011;33098;52.400;16.880;2023-07-09T11:21:28;3.70;;;3.00;;
24335;SDS011;33098;52.400;16.880;2023-07-09T11:23:57;3.80;;;2.50;;
24335;SDS011;33098;52.400;16.880;2023-07-09T11:26:32;3.40;;;3.00;;
24335;SDS011;33098;52.400;16.880;2023-07-09T11:34:14;2.90;;;2.70;;
24335;SDS011;33098;52.400;16.880;2023-07-09T11:36:49;4.10;;;2.90;;
24335;SDS011;33098;52.400;16.880;2023-07-09T11:44:53;3.00;;;2.40;;
24335;SDS011;33098;52.400;16.880;2023-07-09T11:47:33;3.70;;;2.80;;
24335;SDS011;33098;52.400;16.880;2023-07-09T11:50:05;2.90;;;2.40;;
24335;SDS011;33098;52.400;16.880;2023-07-09T11:52:43;2.60;;;2.30;;
24335;SDS011;33098;52.400;16.880;2023-07-09T11:55:43;2.60;;;2.40;;
24335;SDS011;33098;52.400;16.880;2023-07-09T11:58:15;2.30;;;2.10;;
24335;SDS011;33098;52.400;16.880;2023-07-09T12:00:49;3.20;;;1.90;;
24335;SDS011;33098;52.400;16.880;2023-07-09T12:03:35;2.30;;;2.10;;
24335;SDS011;33098;52.400;16.880;2023-07-09T12:06:21;3.50;;;2.30;;
24335;SDS011;33098;52.400;16.880;2023-07-09T12:08:57;2.30;;;2.10;;
24335;SDS011;33098;52.400;16.880;2023-07-09T12:11:28;3.50;;;2.40;;
24335;SDS011;33098;52.400;16.880;2023-07-09T12:14:13;2.60;;;1.90;;
24335;SDS011;33098;52.400;16.880;2023-07-09T12:16:49;2.70;;;2.30;;
24335;SDS011;33098;52.400;16.880;2023-07-09T12:25:18;2.50;;;2.20;;
24335;SDS011;33098;52.400;16.880;2023-07-09T12:28:00;2.50;;;2.30;;
24335;SDS011;33098;52.400;16.880;2023-07-09T12:30:31;2.80;;;2.10;;
24335;SDS011;33098;52.400;16.880;2023-07-09T12:33:12;2.50;;;2.10;;
24335;SDS011;33098;52.400;16.880;2023-07-09T12:36:04;2.40;;;2.20;;
24335;SDS011;33098;52.400;16.880;2023-07-09T12:39:00;2.20;;;2.10;;
24335;SDS011;33098;52.400;16.880;2023-07-09T12:41:40;2.50;;;2.30;;
24335;SDS011;33098;52.400;16.880;2023-07-09T12:44:18;2.60;;;2.30;;
24335;SDS011;33098;52.400;16.880;2023-07-09T12:49:45;3.40;;;2.00;;
24335;SDS011;33098;52.400;16.880;2023-07-09T12:52:17;2.80;;;2.10;;
24335;SDS011;33098;52.400;16.880;2023-07-09T12:55:02;2.20;;;2.00;;
24335;SDS011;33098;52.400;16.880;2023-07-09T12:57:39;2.40;;;2.10;;
24335;SDS011;33098;52.400;16.880;2023-07-09T13:00:13;2.30;;;2.10;;
24335;SDS011;33098;52.400;16.880;2023-07-09T13:02:44;2.90;;;2.00;;
24335;SDS011;33098;52.400;16.880;2023-07-09T13:05:20;2.10;;;1.90;;
24335;SDS011;33098;52.400;16.880;2023-07-09T13:10:39;1.90;;;1.80;;
24335;SDS011;33098;52.400;16.880;2023-07-09T13:13:12;2.20;;;2.00;;
24335;SDS011;33098;52.400;16.880;2023-07-09T13:15:42;2.20;;;2.00;;
24335;SDS011;33098;52.400;16.880;2023-07-09T13:18:19;2.10;;;1.90;;
24335;SDS011;33098;52.400;16.880;2023-07-09T13:20:45;2.10;;;1.90;;
24335;SDS011;33098;52.400;16.880;2023-07-09T13:23:22;2.10;;;1.90;;
24335;SDS011;33098;52.400;16.880;2023-07-09T13:25:51;2.30;;;2.10;;
24335;SDS011;33098;52.400;16.880;2023-07-09T13:28:23;2.20;;;1.80;;
24335;SDS011;33098;52.400;16.880;2023-07-09T13:30:58;2.20;;;1.90;;
24335;SDS011;33098;52.400;16.880;2023-07-09T13:33:57;2.00;;;1.80;;
24335;SDS011;33098;52.400;16.880;2023-07-09T13:36:24;2.40;;;1.70;;
24335;SDS011;33098;52.400;16.880;2023-07-09T13:38:51;1.90;;;1.70;;
24335;SDS011;33098;52.400;16.880;2023-07-09T13:41:18;2.00;;;1.80;;
24335;SDS011;33098;52.400;16.880;2023-07-09T13:43:49;2.80;;;2.00;;
24335;SDS011;33098;52.400;16.880;2023-07-09T13:46:16;3.00;;;2.10;;
24335;SDS011;33098;52.400;16.880;2023-07-09T13:48:46;2.90;;;2.10;;
24335;SDS011;33098;52.400;16.880;2023-07-09T13:51:21;2.20;;;1.90;;
24335;SDS011;33098;52.400;16.880;2023-07-09T13:53:53;2.10;;;1.90;;
24335;SDS011;33098;52.400;16.880;2023-07-09T13:56:21;2.30;;;2.00;;
24335;SDS011;33098;52.400;16.880;2023-07-09T13:58:48;2.10;;;2.00;;
24335;SDS011;33098;52.400;16.880;2023-07-09T14:01:18;2.00;;;1.90;;
24335;SDS011;33098;52.400;16.880;2023-07-09T14:03:49;2.40;;;1.80;;
24335;SDS011;33098;52.400;16.880;2023-07-09T14:06:16;1.90;;;1.80;;
24335;SDS011;33098;52.400;16.880;2023-07-09T14:08:50;2.20;;;2.00;;
24335;SDS011;33098;52.400;16.880;2023-07-09T14:11:17;2.40;;;2.10;;
24335;SDS011;33098;52.400;16.880;2023-07-09T14:13:44;2.10;;;2.00;;
24335;SDS011;33098;52.400;16.880;2023-07-09T14:16:11;2.00;;;1.80;;
24335;SDS011;33098;52.400;16.880;2023-07-09T14:18:39;2.50;;;2.30;;
24335;SDS011;33098;52.400;16.880;2023-07-09T14:21:10;2.40;;;2.20;;
24335;SDS011;33098;52.400;16.880;2023-07-09T14:23:40;2.30;;;2.10;;
24335;SDS011;33098;52.400;16.880;2023-07-09T14:26:08;2.30;;;2.10;;
24335;SDS011;33098;52.400;16.880;2023-07-09T14:28:36;2.40;;;2.20;;
24335;SDS011;33098;52.400;16.880;2023-07-09T14:31:19;2.40;;;2.20;;
24335;SDS011;33098;52.400;16.880;2023-07-09T14:33:49;2.50;;;2.30;;
24335;SDS011;33098;52.400;16.880;2023-07-09T14:36:16;2.40;;;2.20;;
24335;SDS011;33098;52.400;16.880;2023-07-09T14:38:43;2.30;;;2.00;;
24335;SDS011;33098;52.400;16.880;2023-07-09T14:41:31;2.10;;;2.00;;
24335;SDS011;33098;52.400;16.880;2023-07-09T14:43:58;2.50;;;2.10;;
24335;SDS011;33098;52.400;16.880;2023-07-09T14:46:25;2.50;;;2.30;;
24335;SDS011;33098;52.400;16.880;2023-07-09T14:48:51;2.60;;;2.40;;
24335;SDS011;33098;52.400;16.880;2023-07-09T14:51:20;2.70;;;2.50;;
24335;SDS011;33098;52.400;16.880;2023-07-09T14:53:50;2.40;;;2.20;;
24335;SDS011;33098;52.400;16.880;2023-07-09T14:56:16;3.00;;;2.70;;
24335;SDS011;33098;52.400;16.880;2023-07-09T14:58:45;2.70;;;2.50;;
24335;SDS011;33098;52.400;16.880;2023-07-09T15:01:13;4.00;;;2.30;;
24335;SDS011;33098;52.400;16.880;2023-07-09T15:03:41;8.50;;;2.50;;
24335;SDS011;33098;52.400;16.880;2023-07-09T15:06:08;3.20;;;2.50;;
24335;SDS011;33098;52.400;16.880;2023-07-09T15:08:35;2.30;;;2.10;;
24335;SDS011;33098;52.400;16.880;2023-07-09T15:11:03;2.60;;;2.40;;
24335;SDS011;33098;52.400;16.880;2023-07-09T15:13:32;2.80;;;2.60;;
24335;SDS011;33098;52.400;16.880;2023-07-09T15:16:01;2.50;;;2.30;;
24335;SDS011;33098;52.400;16.880;2023-07-09T15:18:33;2.30;;;2.20;;
24335;SDS011;33098;52.400;16.880;2023-07-09T15:21:02;2.40;;;2.20;;
24335;SDS011;33098;52.400;16.880;2023-07-09T15:23:30;2.70;;;2.20;;
24335;SDS011;33098;52.400;16.880;2023-07-09T15:26:01;2.40;;;2.20;;
24335;SDS011;33098;52.400;16.880;2023-07-09T15:28:28;2.30;;;2.00;;
24335;SDS011;33098;52.400;16.880;2023-07-09T15:30:55;2.10;;;2.00;;
24335;SDS011;33098;52.400;16.880;2023-07-09T15:33:21;2.50;;;2.30;;
24335;SDS011;33098;52.400;16.880;2023-07-09T15:35:48;2.30;;;2.10;;
24335;SDS011;33098;52.400;16.880;2023-07-09T15:40:54;2.60;;;2.40;;
24335;SDS011;33098;52.400;16.880;2023-07-09T15:43:21;2.30;;;2.10;;
24335;SDS011;33098;52.400;16.880;2023-07-09T15:45:49;3.10;;;2.20;;
24335;SDS011;33098;52.400;16.880;2023-07-09T15:50:48;2.40;;;2.10;;
24335;SDS011;33098;52.400;16.880;2023-07-09T15:53:16;3.00;;;2.00;;
24335;SDS011;33098;52.400;16.880;2023-07-09T15:55:48;3.20;;;2.30;;
24335;SDS011;33098;52.400;16.880;2023-07-09T15:58:19;4.00;;;2.30;;
24335;SDS011;33098;52.400;16.880;2023-07-09T16:00:57;2.30;;;2.10;;
24335;SDS011;33098;52.400;16.880;2023-07-09T16:03:23;2.40;;;2.10;;
24335;SDS011;33098;52.400;16.880;2023-07-09T16:05:50;4.80;;;2.20;;
24335;SDS011;33098;52.400;16.880;2023-07-09T16:08:16;3.80;;;2.40;;
24335;SDS011;33098;52.400;16.880;2023-07-09T16:10:46;2.50;;;2.30;;
24335;SDS011;33098;52.400;16.880;2023-07-09T16:13:23;2.50;;;2.30;;
24335;SDS011;33098;52.400;16.880;2023-07-09T16:15:51;2.50;;;2.30;;
24335;SDS011;33098;52.400;16.880;2023-07-09T16:18:18;2.40;;;2.20;;
24335;SDS011;33098;52.400;16.880;2023-07-09T16:20:45;2.40;;;2.20;;
24335;SDS011;33098;52.400;16.880;2023-07-09T16:23:15;2.50;;;2.30;;
24335;SDS011;33098;52.400;16.880;2023-07-09T16:25:50;2.40;;;2.10;;
24335;SDS011;33098;52.400;16.880;2023-07-09T16:28:17;3.30;;;2.40;;
24335;SDS011;33098;52.400;16.880;2023-07-09T16:30:46;2.40;;;2.10;;
24335;SDS011;33098;52.400;16.880;2023-07-09T16:33:14;2.00;;;1.90;;
24335;SDS011;33098;52.400;16.880;2023-07-09T16:35:41;3.30;;;2.10;;
24335;SDS011;33098;52.400;16.880;2023-07-09T16:38:12;2.80;;;2.10;;
24335;SDS011;33098;52.400;16.880;2023-07-09T16:40:39;2.20;;;2.00;;
24335;SDS011;33098;52.400;16.880;2023-07-09T16:43:13;2.20;;;2.00;;
24335;SDS011;33098;52.400;16.880;2023-07-09T16:45:44;2.40;;;2.20;;
24335;SDS011;33098;52.400;16.880;2023-07-09T16:48:30;2.70;;;2.30;;
24335;SDS011;33098;52.400;16.880;2023-07-09T16:50:56;3.50;;;2.40;;
24335;SDS011;33098;52.400;16.880;2023-07-09T16:53:23;4.10;;;2.30;;
24335;SDS011;33098;52.400;16.880;2023-07-09T16:55:51;3.50;;;2.50;;
24335;SDS011;33098;52.400;16.880;2023-07-09T17:00:54;3.00;;;2.20;;
24335;SDS011;33098;52.400;16.880;2023-07-09T17:03:22;3.80;;;2.20;;
24335;SDS011;33098;52.400;16.880;2023-07-09T17:05:49;2.20;;;2.00;;
24335;SDS011;33098;52.400;16.880;2023-07-09T17:08:16;2.40;;;2.20;;
24335;SDS011;33098;52.400;16.880;2023-07-09T17:10:48;2.20;;;2.00;;
24335;SDS011;33098;52.400;16.880;2023-07-09T17:13:20;3.40;;;2.10;;
24335;SDS011;33098;52.400;16.880;2023-07-09T17:15:56;4.30;;;2.30;;
24335;SDS011;33098;52.400;16.880;2023-07-09T17:18:29;2.20;;;2.00;;
24335;SDS011;33098;52.400;16.880;2023-07-09T17:21:25;2.90;;;2.20;;
24335;SDS011;33098;52.400;16.880;2023-07-09T17:23:53;2.70;;;2.00;;
24335;SDS011;33098;52.400;16.880;2023-07-09T17:26:21;2.80;;;2.50;;
24335;SDS011;33098;52.400;16.880;2023-07-09T17:28:50;2.50;;;2.30;;
24335;SDS011;33098;52.400;16.880;2023-07-09T17:31:19;3.50;;;2.10;;
24335;SDS011;33098;52.400;16.880;2023-07-09T17:33:47;5.80;;;2.30;;
24335;SDS011;33098;52.400;16.880;2023-07-09T17:36:22;2.60;;;2.10;;
24335;SDS011;33098;52.400;16.880;2023-07-09T17:39:05;4.00;;;2.00;;
24335;SDS011;33098;52.400;16.880;2023-07-09T17:41:46;3.40;;;2.10;;
24335;SDS011;33098;52.400;16.880;2023-07-09T17:44:24;4.40;;;2.30;;
24335;SDS011;33098;52.400;16.880;2023-07-09T17:47:05;2.60;;;2.10;;
24335;SDS011;33098;52.400;16.880;2023-07-09T17:49:42;2.60;;;2.10;;
24335;SDS011;33098;52.400;16.880;2023-07-09T17:52:33;2.60;;;2.20;;
24335;SDS011;33098;52.400;16.880;2023-07-09T17:55:02;2.30;;;2.00;;
24335;SDS011;33098;52.400;16.880;2023-07-09T17:57:29;1.90;;;1.80;;
24335;SDS011;33098;52.400;16.880;2023-07-09T17:59:57;2.40;;;2.10;;
24335;SDS011;33098;52.400;16.880;2023-07-09T18:02:26;3.60;;;2.50;;
24335;SDS011;33098;52.400;16.880;2023-07-09T18:05:00;2.20;;;2.00;;
24335;SDS011;33098;52.400;16.880;2023-07-09T18:07:29;2.50;;;2.10;;
24335;SDS011;33098;52.400;16.880;2023-07-09T18:10:00;1.70;;;1.60;;
24335;SDS011;33098;52.400;16.880;2023-07-09T18:12:29;4.70;;;1.80;;
24335;SDS011;33098;52.400;16.880;2023-07-09T18:14:59;3.90;;;2.00;;
24335;SDS011;33098;52.400;16.880;2023-07-09T18:17:32;3.30;;;2.20;;
24335;SDS011;33098;52.400;16.880;2023-07-09T18:22:39;3.40;;;2.40;;
24335;SDS011;33098;52.400;16.880;2023-07-09T18:25:08;3.00;;;1.70;;
24335;SDS011;33098;52.400;16.880;2023-07-09T18:27:42;3.00;;;2.40;;
24335;SDS011;33098;52.400;16.880;2023-07-09T18:30:35;2.00;;;1.70;;
24335;SDS011;33098;52.400;16.880;2023-07-09T18:33:03;3.40;;;2.20;;
24335;SDS011;33098;52.400;16.880;2023-07-09T18:35:38;2.10;;;1.90;;
24335;SDS011;33098;52.400;16.880;2023-07-09T18:38:09;4.10;;;1.90;;
24335;SDS011;33098;52.400;16.880;2023-07-09T18:40:41;3.80;;;2.00;;
24335;SDS011;33098;52.400;16.880;2023-07-09T18:43:13;2.70;;;2.10;;
24335;SDS011;33098;52.400;16.880;2023-07-09T18:45:42;2.80;;;2.20;;
24335;SDS011;33098;52.400;16.880;2023-07-09T18:48:13;3.70;;;1.90;;
24335;SDS011;33098;52.400;16.880;2023-07-09T18:50:42;4.00;;;2.20;;
24335;SDS011;33098;52.400;16.880;2023-07-09T18:53:11;2.20;;;1.80;;
24335;SDS011;33098;52.400;16.880;2023-07-09T18:58:17;3.50;;;2.00;;
24335;SDS011;33098;52.400;16.880;2023-07-09T19:00:48;2.40;;;2.20;;
24335;SDS011;33098;52.400;16.880;2023-07-09T19:05:49;2.50;;;1.60;;
24335;SDS011;33098;52.400;16.880;2023-07-09T19:08:23;3.50;;;2.20;;
24335;SDS011;33098;52.400;16.880;2023-07-09T19:10:59;2.20;;;1.70;;
24335;SDS011;33098;52.400;16.880;2023-07-09T19:13:31;2.60;;;1.90;;
24335;SDS011;33098;52.400;16.880;2023-07-09T19:16:02;2.70;;;2.00;;
24335;SDS011;33098;52.400;16.880;2023-07-09T19:18:33;4.30;;;1.90;;
24335;SDS011;33098;52.400;16.880;2023-07-09T19:21:03;2.70;;;1.90;;
24335;SDS011;33098;52.400;16.880;2023-07-09T19:23:35;2.00;;;1.70;;
24335;SDS011;33098;52.400;16.880;2023-07-09T19:26:04;2.20;;;1.80;;
24335;SDS011;33098;52.400;16.880;2023-07-09T19:28:32;2.30;;;2.10;;
24335;SDS011;33098;52.400;16.880;2023-07-09T19:30:59;2.60;;;1.90;;
24335;SDS011;33098;52.400;16.880;2023-07-09T19:33:33;2.50;;;1.80;;
24335;SDS011;33098;52.400;16.880;2023-07-09T19:36:04;3.30;;;1.90;;
24335;SDS011;33098;52.400;16.880;2023-07-09T19:38:47;3.20;;;2.00;;
24335;SDS011;33098;52.400;16.880;2023-07-09T19:41:15;4.00;;;2.00;;
24335;SDS011;33098;52.400;16.880;2023-07-09T19:43:44;4.50;;;2.00;;
24335;SDS011;33098;52.400;16.880;2023-07-09T19:46:24;2.90;;;2.30;;
24335;SDS011;33098;52.400;16.880;2023-07-09T19:48:58;2.40;;;2.00;;
24335;SDS011;33098;52.400;16.880;2023-07-09T19:51:25;2.30;;;2.00;;
24335;SDS011;33098;52.400;16.880;2023-07-09T19:53:53;3.10;;;2.20;;
24335;SDS011;33098;52.400;16.880;2023-07-09T19:56:20;4.00;;;2.40;;
24335;SDS011;33098;52.400;16.880;2023-07-09T19:58:54;5.00;;;2.40;;
24335;SDS011;33098;52.400;16.880;2023-07-09T20:01:22;3.60;;;2.40;;
24335;SDS011;33098;52.400;16.880;2023-07-09T20:03:53;3.50;;;2.30;;
24335;SDS011;33098;52.400;16.880;2023-07-09T20:06:21;3.80;;;2.70;;
24335;SDS011;33098;52.400;16.880;2023-07-09T20:08:49;3.70;;;2.10;;
24335;SDS011;33098;52.400;16.880;2023-07-09T20:11:16;3.60;;;2.60;;
24335;SDS011;33098;52.400;16.880;2023-07-09T20:13:45;4.10;;;2.70;;
24335;SDS011;33098;52.400;16.880;2023-07-09T20:16:26;5.00;;;2.30;;
24335;SDS011;33098;52.400;16.880;2023-07-09T20:19:01;4.80;;;2.30;;
24335;SDS011;33098;52.400;16.880;2023-07-09T20:21:41;3.50;;;2.40;;
24335;SDS011;33098;52.400;16.880;2023-07-09T20:24:19;6.00;;;2.50;;
24335;SDS011;33098;52.400;16.880;2023-07-09T20:26:49;2.80;;;2.00;;
24335;SDS011;33098;52.400;16.880;2023-07-09T20:29:17;2.80;;;2.20;;
24335;SDS011;33098;52.400;16.880;2023-07-09T20:31:54;4.80;;;2.60;;
24335;SDS011;33098;52.400;16.880;2023-07-09T20:34:25;4.00;;;2.10;;
24335;SDS011;33098;52.400;16.880;2023-07-09T20:36:54;3.80;;;2.20;;
24335;SDS011;33098;52.400;16.880;2023-07-09T20:39:24;5.60;;;2.40;;
24335;SDS011;33098;52.400;16.880;2023-07-09T20:44:21;3.20;;;2.10;;
24335;SDS011;33098;52.400;16.880;2023-07-09T20:46:51;3.10;;;2.10;;
24335;SDS011;33098;52.400;16.880;2023-07-09T20:49:19;3.30;;;2.40;;
24335;SDS011;33098;52.400;16.880;2023-07-09T20:51:48;3.30;;;2.10;;
24335;SDS011;33098;52.400;16.880;2023-07-09T20:54:18;5.40;;;2.70;;
24335;SDS011;33098;52.400;16.880;2023-07-09T20:56:49;3.80;;;2.70;;
24335;SDS011;33098;52.400;16.880;2023-07-09T20:59:20;4.30;;;2.40;;
24335;SDS011;33098;52.400;16.880;2023-07-09T21:01:55;5.20;;;2.60;;
24335;SDS011;33098;52.400;16.880;2023-07-09T21:04:22;2.90;;;2.30;;
24335;SDS011;33098;52.400;16.880;2023-07-09T21:06:52;5.40;;;2.70;;
24335;SDS011;33098;52.400;16.880;2023-07-09T21:09:21;5.90;;;2.50;;
24335;SDS011;33098;52.400;16.880;2023-07-09T21:11:55;3.80;;;2.60;;
24335;SDS011;33098;52.400;16.880;2023-07-09T21:14:30;4.70;;;2.50;;
24335;SDS011;33098;52.400;16.880;2023-07-09T21:16:57;6.00;;;2.70;;
24335;SDS011;33098;52.400;16.880;2023-07-09T21:19:30;4.10;;;2.60;;
24335;SDS011;33098;52.400;16.880;2023-07-09T21:21:59;4.30;;;2.60;;
24335;SDS011;33098;52.400;16.880;2023-07-09T21:24:30;2.80;;;2.20;;
24335;SDS011;33098;52.400;16.880;2023-07-09T21:27:03;3.50;;;2.50;;
24335;SDS011;33098;52.400;16.880;2023-07-09T21:29:31;4.10;;;2.40;;
24335;SDS011;33098;52.400;16.880;2023-07-09T21:32:03;4.10;;;2.60;;
24335;SDS011;33098;52.400;16.880;2023-07-09T21:34:35;5.60;;;2.70;;
24335;SDS011;33098;52.400;16.880;2023-07-09T21:37:37;2.90;;;2.60;;
24335;SDS011;33098;52.400;16.880;2023-07-09T21:39:56;4.80;;;2.70;;
24335;SDS011;33098;52.400;16.880;2023-07-09T21:42:23;4.00;;;2.50;;
24335;SDS011;33098;52.400;16.880;2023-07-09T21:44:49;4.00;;;2.60;;
24335;SDS011;33098;52.400;16.880;2023-07-09T21:47:18;6.00;;;2.70;;
24335;SDS011;33098;52.400;16.880;2023-07-09T21:49:45;3.10;;;2.50;;
24335;SDS011;33098;52.400;16.880;2023-07-09T21:52:19;3.40;;;2.80;;
24335;SDS011;33098;52.400;16.880;2023-07-09T21:54:49;3.80;;;2.70;;
24335;SDS011;33098;52.400;16.880;2023-07-09T21:57:18;4.40;;;2.40;;
24335;SDS011;33098;52.400;16.880;2023-07-09T21:59:49;3.10;;;2.30;;
24335;SDS011;33098;52.400;16.880;2023-07-09T22:02:17;5.30;;;2.70;;
24335;SDS011;33098;52.400;16.880;2023-07-09T22:04:45;4.70;;;2.40;;
24335;SDS011;33098;52.400;16.880;2023-07-09T22:07:19;5.70;;;2.50;;
24335;SDS011;33098;52.400;16.880;2023-07-09T22:09:54;4.20;;;2.50;;
24335;SDS011;33098;52.400;16.880;2023-07-09T22:15:18;3.40;;;2.50;;
24335;SDS011;33098;52.400;16.880;2023-07-09T22:20:19;4.00;;;2.70;;
24335;SDS011;33098;52.400;16.880;2023-07-09T22:22:50;4.70;;;2.70;;
24335;SDS011;33098;52.400;16.880;2023-07-09T22:25:18;3.70;;;2.70;;
24335;SDS011;33098;52.400;16.880;2023-07-09T22:27:49;4.80;;;2.80;;
24335;SDS011;33098;52.400;16.880;2023-07-09T22:30:23;3.70;;;2.40;;
24335;SDS011;33098;52.400;16.880;2023-07-09T22:32:53;4.40;;;2.70;;
24335;SDS011;33098;52.400;16.880;2023-07-09T22:37:58;4.40;;;2.70;;
24335;SDS011;33098;52.400;16.880;2023-07-09T22:40:27;3.70;;;2.80;;
24335;SDS011;33098;52.400;16.880;2023-07-09T22:42:56;5.00;;;2.40;;
24335;SDS011;33098;52.400;16.880;2023-07-09T22:45:27;4.20;;;2.40;;
24335;SDS011;33098;52.400;16.880;2023-07-09T22:47:59;5.10;;;2.70;;
24335;SDS011;33098;52.400;16.880;2023-07-09T22:50:31;6.10;;;2.50;;
24335;SDS011;33098;52.400;16.880;2023-07-09T22:53:00;4.50;;;2.40;;
24335;SDS011;33098;52.400;16.880;2023-07-09T22:55:35;3.50;;;2.50;;
24335;SDS011;33098;52.400;16.880;2023-07-09T22:58:09;5.60;;;2.70;;
24335;SDS011;33098;52.400;16.880;2023-07-09T23:00:42;3.10;;;2.30;;
24335;SDS011;33098;52.400;16.880;2023-07-09T23:03:14;4.40;;;2.70;;
24335;SDS011;33098;52.400;16.880;2023-07-09T23:05:44;3.30;;;2.30;;
24335;SDS011;33098;52.400;16.880;2023-07-09T23:08:25;2.80;;;2.40;;
24335;SDS011;33098;52.400;16.880;2023-07-09T23:10:55;3.10;;;2.40;;
24335;SDS011;33098;52.400;16.880;2023-07-09T23:13:24;2.80;;;2.30;;
24335;SDS011;33098;52.400;16.880;2023-07-09T23:15:58;3.50;;;2.30;;
24335;SDS011;33098;52.400;16.880;2023-07-09T23:18:25;3.20;;;2.10;;
24335;SDS011;33098;52.400;16.880;2023-07-09T23:20:53;4.80;;;2.50;;
24335;SDS011;33098;52.400;16.880;2023-07-09T23:23:20;2.30;;;2.10;;
24335;SDS011;33098;52.400;16.880;2023-07-09T23:25:51;5.70;;;2.10;;
24335;SDS011;33098;52.400;16.880;2023-07-09T23:28:21;4.60;;;2.50;;
24335;SDS011;33098;52.400;16.880;2023-07-09T23:30:47;4.60;;;2.40;;
24335;SDS011;33098;52.400;16.880;2023-07-09T23:35:50;4.80;;;2.30;;
24335;SDS011;33098;52.400;16.880;2023-07-09T23:38:17;3.20;;;2.50;;
24335;SDS011;33098;52.400;16.880;2023-07-09T23:40:44;3.90;;;2.30;;
24335;SDS011;33098;52.400;16.880;2023-07-09T23:43:12;3.00;;;2.40;;